createdAt,value
2018-09-05T00:01:14.518Z,101159.55
2018-09-05T00:06:09.577Z,101161.23
2018-09-05T00:11:05.161Z,101158.42
2018-09-05T00:16:01.437Z,101154.27
2018-09-05T00:20:56.514Z,101149.85
2018-09-05T00:25:51.428Z,101146.08
2018-09-05T00:30:46.398Z,101146.03
2018-09-05T00:35:41.789Z,101146.53
2018-09-05T00:40:36.297Z,101143.58
2018-09-05T00:45:31.650Z,101139.16
2018-09-05T00:50:26.176Z,101135.86
2018-09-05T00:55:20.686Z,101135.12
2018-09-05T01:00:15.223Z,101132.64
2018-09-05T01:05:09.660Z,101132.86
2018-09-05T01:10:04.624Z,101135.92
2018-09-05T01:14:59.916Z,101135.55
2018-09-05T01:19:54.569Z,101139.44
2018-09-05T01:24:49.030Z,101140.43
2018-09-05T01:29:43.734Z,101141.77
2018-09-05T01:34:39.986Z,101137.61
2018-09-05T01:39:34.473Z,101140.91
2018-09-05T01:44:28.938Z,101141.42
2018-09-05T01:49:23.636Z,101138.87
2018-09-05T01:54:18.296Z,101138.87
2018-09-05T01:59:12.761Z,101138.73
2018-09-05T02:04:07.406Z,101139.22
2018-09-05T02:09:01.900Z,101150.17
2018-09-05T02:13:56.533Z,101143.97
2018-09-05T02:18:51.014Z,101149.20
2018-09-05T02:23:45.480Z,101146.66
2018-09-05T02:28:40.126Z,101144.45
2018-09-05T02:33:34.672Z,101141.91
2018-09-05T02:38:29.343Z,101136.67
2018-09-05T02:43:29.472Z,101141.83
2018-09-05T02:48:24.743Z,101146.46
2018-09-05T02:53:19.260Z,101141.70
2018-09-05T02:58:13.998Z,101148.41
2018-09-05T03:03:08.512Z,101155.73
2018-09-05T03:08:03.066Z,101152.84
2018-09-05T03:12:57.806Z,101148.95
2018-09-05T03:17:52.246Z,101145.91
2018-09-05T03:22:47.200Z,101142.85
2018-09-05T03:27:41.802Z,101138.00
2018-09-05T03:32:36.425Z,101143.84
2018-09-05T03:37:30.904Z,101143.47
2018-09-05T03:42:25.344Z,101147.11
2018-09-05T03:47:19.918Z,101144.94
2018-09-05T03:52:14.442Z,101144.42
2018-09-05T03:57:08.924Z,101147.62
2018-09-05T04:02:03.370Z,101144.94
2018-09-05T04:06:57.872Z,101147.11
2018-09-05T04:11:52.488Z,101152.98
2018-09-05T04:16:46.971Z,101151.13
2018-09-05T04:21:41.433Z,101148.96
2018-09-05T04:26:35.884Z,101144.56
2018-09-05T04:31:30.547Z,101146.89
2018-09-05T04:36:25.193Z,101141.14
2018-09-05T04:41:19.642Z,101140.58
2018-09-05T04:46:14.131Z,101144.62
2018-09-05T04:51:08.584Z,101146.00
2018-09-05T04:56:03.204Z,101146.48
2018-09-05T05:00:58.012Z,101145.63
2018-09-05T05:05:52.494Z,101155.01
2018-09-05T05:10:47.466Z,101155.61
2018-09-05T05:15:42.090Z,101155.21
2018-09-05T05:20:36.704Z,101170.17
2018-09-05T05:25:31.343Z,101174.90
2018-09-05T05:30:25.848Z,101167.21
2018-09-05T05:35:20.376Z,101171.28
2018-09-05T05:40:14.882Z,101175.30
2018-09-05T05:45:09.582Z,101179.18
2018-09-05T05:50:04.555Z,101184.08
2018-09-05T05:54:59.151Z,101181.81
2018-09-05T05:59:53.796Z,101188.91
2018-09-05T06:04:48.284Z,101190.59
2018-09-05T06:09:42.858Z,101189.79
2018-09-05T06:14:37.740Z,101196.05
2018-09-05T06:19:32.205Z,101194.42
2018-09-05T06:24:26.703Z,101187.56
2018-09-05T06:29:21.329Z,101193.59
2018-09-05T06:34:15.907Z,101190.27
2018-09-05T06:39:11.328Z,101193.97
2018-09-05T06:44:06.283Z,101187.56
2018-09-05T06:49:00.731Z,101188.95
2018-09-05T06:53:55.205Z,101194.78
2018-09-05T06:58:50.027Z,101190.87
2018-09-05T07:03:44.604Z,101190.06
2018-09-05T07:08:39.812Z,101194.88
2018-09-05T07:13:34.579Z,101200.77
2018-09-05T07:18:30.386Z,101207.36
2018-09-05T07:23:25.135Z,101208.31
2018-09-05T07:28:19.878Z,101210.27
2018-09-05T07:33:14.629Z,101209.97
2018-09-05T07:38:09.362Z,101202.71
2018-09-05T07:43:04.104Z,101201.12
2018-09-05T07:47:59.148Z,101199.98
2018-09-05T07:52:53.831Z,101204.59
2018-09-05T07:57:48.604Z,101205.53
2018-09-05T08:02:43.320Z,101203.58
2018-09-05T08:07:38.018Z,101204.29
2018-09-05T08:12:32.782Z,101208.58
2018-09-05T08:17:27.936Z,101208.57
2018-09-05T08:22:22.748Z,101198.48
2018-09-05T08:27:21.785Z,101197.00
2018-09-05T08:32:16.633Z,101194.65
2018-09-05T08:37:11.641Z,101191.81
2018-09-05T08:42:06.430Z,101193.00
2018-09-05T08:47:01.483Z,101197.38
2018-09-05T08:51:56.462Z,101197.81
2018-09-05T08:56:51.267Z,101200.58
2018-09-05T09:01:46.058Z,101197.69
2018-09-05T09:06:41.068Z,101191.56
2018-09-05T09:11:36.102Z,101194.36
2018-09-05T09:16:31.380Z,101189.33
2018-09-05T09:21:26.120Z,101188.73
2018-09-05T09:26:20.832Z,101185.23
2018-09-05T09:31:15.668Z,101185.46
2018-09-05T09:36:10.830Z,101170.23
2018-09-05T09:41:05.818Z,101168.92
2018-09-05T09:46:00.705Z,101167.06
2018-09-05T09:50:55.486Z,101160.64
2018-09-05T09:55:50.509Z,101162.63
2018-09-05T10:00:50.568Z,101160.56
2018-09-05T10:05:50.918Z,101151.48
2018-09-05T10:10:51.333Z,101153.62
2018-09-05T10:15:52.021Z,101151.38
2018-09-05T10:20:46.819Z,101144.75
2018-09-05T10:25:41.866Z,101138.20
2018-09-05T10:30:36.821Z,101133.04
2018-09-05T10:35:31.546Z,101129.99
2018-09-05T10:40:26.306Z,101132.78
2018-09-05T10:45:21.488Z,101127.66
2018-09-05T10:50:16.255Z,101128.39
2018-09-05T10:55:12.737Z,101116.73
2018-09-05T11:00:07.512Z,101113.14
2018-09-05T11:05:02.523Z,101104.62
2018-09-05T11:09:57.265Z,101106.26
2018-09-05T11:14:52.518Z,101099.70
2018-09-05T11:19:47.270Z,101095.41
2018-09-05T11:24:42.433Z,101084.78
2018-09-05T11:29:37.230Z,101086.16
2018-09-05T11:34:32.118Z,101088.67
2018-09-05T11:39:27.053Z,101087.88
2018-09-05T11:44:22.022Z,101074.05
2018-09-05T11:49:16.991Z,101073.25
2018-09-05T11:54:12.117Z,101072.06
2018-09-05T11:59:07.309Z,101066.86
2018-09-05T12:04:02.142Z,101075.95
2018-09-05T12:08:56.909Z,101069.62
2018-09-05T12:13:51.993Z,101072.61
2018-09-05T12:18:46.891Z,101064.14
2018-09-05T12:23:41.794Z,101049.29
2018-09-05T12:28:36.908Z,101049.80
2018-09-05T12:33:31.721Z,101039.79
2018-09-05T12:38:26.562Z,101042.70
2018-09-05T12:43:21.627Z,101027.20
2018-09-05T12:48:16.696Z,101028.66
2018-09-05T12:53:11.504Z,101016.61
2018-09-05T12:58:06.468Z,101017.64
2018-09-05T13:03:01.471Z,101010.48
2018-09-05T13:07:56.740Z,101002.54
2018-09-05T13:12:52.190Z,101000.02
2018-09-05T13:17:47.198Z,101002.17
2018-09-05T13:22:42.278Z,101000.73
2018-09-05T13:27:37.763Z,100992.61
2018-09-05T13:32:33.504Z,100988.17
2018-09-05T13:37:28.806Z,100980.95
2018-09-05T13:42:24.126Z,100981.77
2018-09-05T13:47:19.421Z,100969.59
2018-09-05T13:52:18.557Z,100973.90
2018-09-05T13:57:13.837Z,100963.77
2018-09-05T14:02:08.561Z,100959.48
2018-09-05T14:07:03.314Z,100958.05
2018-09-05T14:11:58.021Z,100948.14
2018-09-05T14:16:52.778Z,100954.45
2018-09-05T14:21:47.620Z,100949.23
2018-09-05T14:26:42.868Z,100948.86
2018-09-05T14:31:38.080Z,100938.34
2018-09-05T14:36:32.854Z,100932.68
2018-09-05T14:41:27.607Z,100934.90
2018-09-05T14:46:22.582Z,100935.64
2018-09-05T14:51:17.388Z,100934.61
2018-09-05T14:56:12.150Z,100922.31
2018-09-05T15:01:07.374Z,100913.06
2018-09-05T15:06:02.124Z,100913.06
2018-09-05T15:10:56.882Z,100902.38
2018-09-05T15:15:51.718Z,100898.91
2018-09-05T15:20:46.470Z,100886.83
2018-09-05T15:25:41.884Z,100890.41
2018-09-05T15:30:36.970Z,100886.83
2018-09-05T15:35:31.699Z,100888.08
2018-09-05T15:40:26.494Z,100881.88
2018-09-05T15:45:21.460Z,100879.80
2018-09-05T15:50:16.190Z,100876.73
2018-09-05T15:55:14.261Z,100870.58
2018-09-05T16:00:09.071Z,100866.80
2018-09-05T16:05:03.969Z,100870.27
2018-09-05T16:09:58.752Z,100866.09
2018-09-05T16:14:53.666Z,100867.64
2018-09-05T16:19:48.864Z,100870.69
2018-09-05T16:24:43.627Z,100877.67
2018-09-05T16:29:38.418Z,100875.91
2018-09-05T16:34:33.168Z,100880.09
2018-09-05T16:39:28.115Z,100891.37
2018-09-05T16:44:22.928Z,100884.05
2018-09-05T16:49:18.048Z,100885.00
2018-09-05T16:54:13.002Z,100896.47
2018-09-05T16:59:07.763Z,100899.40
2018-09-05T17:04:02.539Z,100897.00
2018-09-05T17:08:57.017Z,100898.14
2018-09-05T17:13:51.799Z,100896.27
2018-09-05T17:18:46.312Z,100901.16
2018-09-05T17:23:40.803Z,100901.23
2018-09-05T17:28:35.376Z,100907.51
2018-09-05T17:33:30.240Z,100909.20
2018-09-05T17:38:24.734Z,100920.33
2018-09-05T17:43:19.434Z,100917.73
2018-09-05T17:48:14.111Z,100915.27
2018-09-05T17:53:08.700Z,100910.77
2018-09-05T17:58:03.628Z,100913.17
2018-09-05T18:02:58.105Z,100918.60
2018-09-05T18:07:52.645Z,100926.27
2018-09-05T18:12:47.374Z,100929.13
2018-09-05T18:17:42.332Z,100926.47
2018-09-05T18:22:36.886Z,100924.06
2018-09-05T18:27:31.438Z,100929.98
2018-09-05T18:32:26.233Z,100930.48
2018-09-05T18:37:22.578Z,100928.44
2018-09-05T18:42:17.361Z,100928.23
2018-09-05T18:47:12.595Z,100922.61
2018-09-05T18:52:07.600Z,100920.05
2018-09-05T18:57:02.534Z,100917.81
2018-09-05T19:01:57.215Z,100919.48
2018-09-05T19:06:52.103Z,100907.34
2018-09-05T19:11:46.708Z,100918.11
2018-09-05T19:16:41.288Z,100908.98
2018-09-05T19:21:36.027Z,100907.27
2018-09-05T19:26:30.518Z,100910.61
2018-09-05T19:31:25.495Z,100907.35
2018-09-05T19:36:20.189Z,100899.25
2018-09-05T19:41:14.964Z,100896.67
2018-09-05T19:46:09.836Z,100889.56
2018-09-05T19:51:04.326Z,100888.05
2018-09-05T19:55:58.799Z,100881.63
2018-09-05T20:06:55.310Z,100883.09
2018-09-05T20:11:51.560Z,100880.92
2018-09-05T20:16:46.177Z,100882.27
2018-09-05T20:21:41.158Z,100882.27
2018-09-05T20:26:35.677Z,100885.30
2018-09-05T20:31:30.838Z,100885.09
2018-09-05T20:36:25.323Z,100882.88
2018-09-05T20:41:20.314Z,100881.67
2018-09-05T20:46:15.022Z,100877.25
2018-09-05T20:51:09.696Z,100876.18
2018-09-05T20:56:04.467Z,100890.14
2018-09-05T21:00:59.047Z,100890.63
2018-09-05T21:05:53.664Z,100885.70
2018-09-05T21:10:48.299Z,100896.48
2018-09-05T21:15:42.800Z,100895.91
2018-09-05T21:20:37.416Z,100901.13
2018-09-05T21:25:32.118Z,100901.61
2018-09-05T21:30:27.596Z,100908.44
2018-09-05T21:35:23.149Z,100911.05
2018-09-05T21:40:17.708Z,100905.09
2018-09-05T21:45:12.864Z,100910.08
2018-09-05T21:50:08.094Z,100900.56
2018-09-05T21:55:02.940Z,100914.98
2018-09-05T21:59:57.441Z,100913.92
2018-09-05T22:04:51.944Z,100907.09
2018-09-05T22:09:46.492Z,100900.73
2018-09-05T22:14:41.134Z,100888.73
2018-09-05T22:19:35.960Z,100891.25
2018-09-05T22:24:30.676Z,100888.71
2018-09-05T22:29:25.174Z,100889.53
2018-09-05T22:34:20.255Z,100885.50
2018-09-05T22:39:14.780Z,100886.30
2018-09-05T22:44:26.494Z,100881.21
2018-09-05T22:50:46.859Z,100879.69
2018-09-05T22:56:32.526Z,100865.48
2018-09-05T23:03:45.918Z,100863.90
2018-09-05T23:08:44.826Z,100853.89
2018-09-05T23:13:58.892Z,100848.81
2018-09-05T23:21:20.846Z,100844.71
2018-09-05T23:26:15.346Z,100834.86
2018-09-05T23:31:09.987Z,100836.02
2018-09-05T23:36:05.190Z,100829.63
2018-09-05T23:40:59.868Z,100827.95
2018-09-05T23:45:54.774Z,100824.89
2018-09-05T23:50:49.550Z,100828.10
2018-09-05T23:55:44.457Z,100829.45
